Time;durP1;ratioP1;P1;durP2;ratioP2;P2;SDS_P1;SDS_P2;PMS_P1;PMS_P2;Temp;Humidity;BMP_temperature;BMP_pressure;BME280_temperature;BME280_humidity;BME280_pressure;Samples;Min_cycle;Max_cycle;Signal;HPM_P1;HPM_P2
2022/10/12 00:00:34;;;;;;;29.03;22.70;;;16.90;99.90;;;;;;5137644;27;20199;-73
2022/10/12 00:03:00;;;;;;;31.60;22.63;;;16.90;99.90;;;;;;5137756;27;20550;-74
2022/10/12 00:05:26;;;;;;;25.20;20.10;;;16.90;99.90;;;;;;5137429;27;20282;-73
2022/10/12 00:07:51;;;;;;;28.07;21.27;;;16.80;99.90;;;;;;5119017;27;20171;-73
2022/10/12 00:10:17;;;;;;;30.83;21.70;;;16.80;99.90;;;;;;5118836;27;20211;-73
2022/10/12 00:12:43;;;;;;;30.53;21.30;;;16.80;99.90;;;;;;5137333;27;20227;-73
2022/10/12 00:15:10;;;;;;;25.30;21.37;;;16.80;99.90;;;;;;5118818;27;20434;-74
2022/10/12 00:17:36;;;;;;;32.80;23.63;;;16.80;99.90;;;;;;5118829;27;20564;-73
2022/10/12 00:20:03;;;;;;;30.10;21.80;;;16.70;99.90;;;;;;5137051;27;20881;-74
2022/10/12 00:22:28;;;;;;;28.47;21.17;;;16.70;99.90;;;;;;5136923;27;20179;-73
2022/10/12 00:24:54;;;;;;;32.20;21.50;;;16.70;99.90;;;;;;5118625;27;20423;-73
2022/10/12 00:27:20;;;;;;;27.83;21.87;;;16.70;99.90;;;;;;5118629;27;20545;-73
2022/10/12 00:29:46;;;;;;;28.33;20.37;;;16.70;99.90;;;;;;5118398;27;20264;-74
2022/10/12 00:32:11;;;;;;;39.57;22.80;;;16.70;99.90;;;;;;5118424;27;20274;-73
2022/10/12 00:34:37;;;;;;;28.30;21.40;;;16.70;99.90;;;;;;5136863;27;20784;-74
2022/10/12 00:37:02;;;;;;;27.30;22.10;;;16.70;99.90;;;;;;5136810;27;20603;-74
2022/10/12 00:39:28;;;;;;;29.07;21.57;;;16.70;99.90;;;;;;5136844;27;20304;-74
2022/10/12 00:41:53;;;;;;;27.27;21.77;;;16.70;99.90;;;;;;5136801;27;20651;-74
2022/10/12 00:44:41;;;;;;;28.17;21.93;;;16.70;99.90;;;;;;5136988;27;20250;-73
2022/10/12 00:47:27;;;;;;;31.33;22.10;;;16.70;99.90;;;;;;5136578;27;20167;-74
2022/10/12 00:50:04;;;;;;;28.00;22.63;;;16.70;99.90;;;;;;5136518;27;20470;-74
2022/10/12 00:53:14;;;;;;;29.00;22.13;;;16.70;99.90;;;;;;5118176;27;20430;-73
2022/10/12 00:55:48;;;;;;;31.93;22.07;;;16.70;99.90;;;;;;5135618;27;20451;-73
2022/10/12 00:58:14;;;;;;;29.33;21.93;;;16.70;99.90;;;;;;5136781;27;20419;-73
2022/10/12 01:00:40;;;;;;;28.30;22.10;;;16.60;99.90;;;;;;5136385;27;20422;-73
2022/10/12 01:03:09;;;;;;;30.47;22.20;;;16.60;99.90;;;;;;5136271;27;20781;-73
2022/10/12 01:05:39;;;;;;;28.67;22.87;;;16.60;99.90;;;;;;5136232;27;20488;-73
2022/10/12 01:08:05;;;;;;;30.17;21.80;;;16.60;99.90;;;;;;5117907;27;20427;-74
2022/10/12 01:10:30;;;;;;;33.00;22.97;;;16.60;99.90;;;;;;5117653;27;20511;-74
2022/10/12 01:12:56;;;;;;;32.73;22.50;;;16.60;99.90;;;;;;5136356;27;20415;-74
2022/10/12 01:15:26;;;;;;;31.30;22.00;;;16.60;99.90;;;;;;5136110;27;20598;-73
2022/10/12 01:18:03;;;;;;;32.07;23.97;;;16.60;99.90;;;;;;5136347;27;20788;-74
2022/10/12 01:21:06;;;;;;;32.73;23.10;;;16.60;99.90;;;;;;5136036;27;20427;-73
2022/10/12 01:23:58;;;;;;;29.40;21.27;;;16.60;99.90;;;;;;5135893;27;20474;-73
2022/10/12 01:26:58;;;;;;;28.60;22.70;;;16.60;99.90;;;;;;5135868;27;20569;-74
2022/10/12 01:29:35;;;;;;;31.33;22.83;;;16.60;99.90;;;;;;5135732;27;20818;-73
2022/10/12 01:32:19;;;;;;;30.57;22.50;;;16.60;99.90;;;;;;5135788;27;20479;-73
2022/10/12 01:35:18;;;;;;;35.67;23.10;;;16.60;99.90;;;;;;5135718;27;20479;-73
2022/10/12 01:38:21;;;;;;;32.40;23.67;;;16.70;99.90;;;;;;5095417;27;20922;-73
2022/10/12 01:41:02;;;;;;;32.07;23.50;;;16.70;99.90;;;;;;5117172;27;20496;-73
2022/10/12 01:43:39;;;;;;;33.50;23.93;;;16.70;99.90;;;;;;5135877;27;20534;-74
2022/10/12 01:46:24;;;;;;;38.27;24.87;;;16.70;99.90;;;;;;5135206;27;20442;-74
2022/10/12 01:48:54;;;;;;;31.57;23.27;;;16.70;99.90;;;;;;5117427;27;20476;-73
2022/10/12 01:51:59;;;;;;;30.10;22.77;;;16.70;99.90;;;;;;5116970;27;20458;-73
2022/10/12 01:54:41;;;;;;;34.07;23.80;;;16.70;99.90;;;;;;5135380;27;20405;-73
2022/10/12 01:57:32;;;;;;;31.03;23.90;;;16.70;99.90;;;;;;5134596;27;20398;-74
2022/10/12 02:00:16;;;;;;;32.60;24.47;;;16.70;99.90;;;;;;5116788;27;20935;-73
2022/10/12 02:02:51;;;;;;;34.10;25.93;;;16.70;99.90;;;;;;5135448;27;20415;-74
2022/10/12 02:05:16;;;;;;;39.63;27.37;;;16.70;99.90;;;;;;5134980;27;20433;-74
2022/10/12 02:07:48;;;;;;;29.57;23.20;;;16.70;99.90;;;;;;5135126;27;20828;-74
2022/10/12 02:10:22;;;;;;;31.73;23.63;;;16.70;99.90;;;;;;5116556;27;20215;-73
2022/10/12 02:12:49;;;;;;;34.17;25.47;;;16.70;99.90;;;;;;5116760;27;20782;-73
2022/10/12 02:15:16;;;;;;;37.40;24.10;;;16.70;99.90;;;;;;5116559;27;20994;-73
2022/10/12 02:17:46;;;;;;;44.37;25.13;;;16.70;99.90;;;;;;5135162;27;20895;-73
2022/10/12 02:20:15;;;;;;;30.90;23.67;;;16.70;99.90;;;;;;5134798;27;20495;-73
2022/10/12 02:22:45;;;;;;;36.57;24.70;;;16.70;99.90;;;;;;5134674;27;20471;-73
2022/10/12 02:25:13;;;;;;;32.90;25.30;;;16.70;99.90;;;;;;5134767;27;20415;-74
2022/10/12 02:27:44;;;;;;;32.27;22.97;;;16.70;99.90;;;;;;5135017;27;20411;-74
2022/10/12 02:30:10;;;;;;;37.33;25.40;;;16.70;99.90;;;;;;5134672;27;20501;-73
2022/10/12 02:33:02;;;;;;;33.47;24.30;;;16.70;99.90;;;;;;5116357;28;20433;-74
2022/10/12 02:35:37;;;;;;;36.60;26.30;;;16.70;99.90;;;;;;5134892;27;20522;-74
2022/10/12 02:38:18;;;;;;;33.67;24.60;;;16.70;99.90;;;;;;5134977;27;20767;-73
2022/10/12 02:40:57;;;;;;;29.73;23.50;;;16.80;99.90;;;;;;5134782;28;20934;-73
2022/10/12 02:43:26;;;;;;;34.17;24.73;;;16.70;99.90;;;;;;5135112;28;20494;-74
2022/10/12 02:45:53;;;;;;;35.47;24.57;;;16.70;99.90;;;;;;5134696;28;20949;-74
2022/10/12 02:48:22;;;;;;;33.37;23.73;;;16.80;99.90;;;;;;5134924;28;20415;-74
2022/10/12 02:50:51;;;;;;;33.60;24.23;;;16.80;99.90;;;;;;5134504;28;20470;-73
2022/10/12 02:53:17;;;;;;;33.67;23.40;;;16.80;99.90;;;;;;5134871;28;20492;-74
2022/10/12 02:55:51;;;;;;;32.60;24.07;;;16.80;99.90;;;;;;5116048;28;20462;-74
2022/10/12 02:58:17;;;;;;;35.07;24.70;;;16.80;99.90;;;;;;5134501;28;20662;-73
2022/10/12 03:00:43;;;;;;;31.03;24.30;;;16.80;99.90;;;;;;5134479;28;20471;-74
2022/10/12 03:03:09;;;;;;;33.13;23.77;;;16.70;99.90;;;;;;5116109;28;20970;-72
2022/10/12 03:05:35;;;;;;;34.07;24.50;;;16.70;99.90;;;;;;5116040;28;20427;-73
2022/10/12 03:08:01;;;;;;;34.03;24.57;;;16.70;99.90;;;;;;5116590;27;20422;-74
2022/10/12 03:10:26;;;;;;;31.50;22.87;;;16.80;99.90;;;;;;5138444;27;20207;-73
2022/10/12 03:12:53;;;;;;;31.40;23.83;;;16.70;99.90;;;;;;5120223;27;20182;-73
2022/10/12 03:15:19;;;;;;;32.83;23.03;;;16.70;99.90;;;;;;5138677;27;20551;-73
2022/10/12 03:17:44;;;;;;;34.03;22.87;;;16.70;99.90;;;;;;5120021;27;20439;-74
2022/10/12 03:20:10;;;;;;;31.43;23.60;;;16.70;99.90;;;;;;5138260;27;20191;-73
2022/10/12 03:22:36;;;;;;;35.40;22.50;;;16.70;99.90;;;;;;5119710;27;20189;-73
2022/10/12 03:25:02;;;;;;;31.70;21.70;;;16.70;99.90;;;;;;5119810;27;20427;-73
2022/10/12 03:27:27;;;;;;;33.93;22.57;;;16.70;99.90;;;;;;5138190;27;20255;-73
2022/10/12 03:29:53;;;;;;;30.33;21.70;;;16.70;99.90;;;;;;5138073;27;20211;-74
2022/10/12 03:32:19;;;;;;;31.87;21.90;;;16.70;99.90;;;;;;5138212;27;20569;-73
2022/10/12 03:34:44;;;;;;;28.00;20.77;;;16.70;99.90;;;;;;5119684;27;20263;-74
2022/10/12 03:37:10;;;;;;;29.67;21.73;;;16.70;99.90;;;;;;5138074;27;20198;-73
2022/10/12 03:39:35;;;;;;;32.30;20.90;;;16.70;99.90;;;;;;5119622;27;20196;-73
2022/10/12 03:42:01;;;;;;;32.17;21.77;;;16.70;99.90;;;;;;5119502;27;20695;-74
2022/10/12 03:44:26;;;;;;;27.83;20.30;;;16.70;99.90;;;;;;5119486;27;20199;-73
2022/10/12 03:46:52;;;;;;;32.87;22.13;;;16.70;99.90;;;;;;5137916;27;20535;-74
2022/10/12 03:49:18;;;;;;;28.70;21.13;;;16.70;99.90;;;;;;5137706;27;20195;-73
2022/10/12 03:51:43;;;;;;;28.80;20.40;;;16.70;99.90;;;;;;5137844;27;20246;-73
2022/10/12 03:54:09;;;;;;;23.10;18.40;;;16.70;99.90;;;;;;5119443;27;20201;-73
2022/10/12 03:56:35;;;;;;;28.33;20.73;;;16.70;99.90;;;;;;5119270;27;20172;-74
2022/10/12 03:59:00;;;;;;;25.60;20.13;;;16.70;99.90;;;;;;5138111;27;20259;-73
2022/10/12 04:01:26;;;;;;;27.80;19.10;;;16.70;99.90;;;;;;5119109;27;20550;-74
2022/10/12 04:03:52;;;;;;;25.23;19.93;;;16.70;99.90;;;;;;5119037;27;20182;-73
2022/10/12 04:06:17;;;;;;;31.83;20.73;;;16.70;99.90;;;;;;5118839;27;20206;-74
2022/10/12 04:08:43;;;;;;;28.80;20.63;;;16.70;99.90;;;;;;5137827;27;20212;-73
2022/10/12 04:11:09;;;;;;;40.00;24.17;;;16.70;99.90;;;;;;5137245;27;20588;-73
2022/10/12 04:13:34;;;;;;;58.53;37.77;;;16.70;99.90;;;;;;5137751;27;20183;-73
2022/10/12 04:16:02;;;;;;;35.37;25.83;;;16.70;99.90;;;;;;5137300;27;20216;-74
2022/10/12 04:18:27;;;;;;;30.47;20.87;;;16.70;99.90;;;;;;5137566;27;20179;-74
2022/10/12 04:20:53;;;;;;;32.00;22.10;;;16.70;99.90;;;;;;5117808;27;20434;-73
2022/10/12 04:23:18;;;;;;;25.87;19.93;;;16.60;99.90;;;;;;5136767;27;20223;-74
2022/10/12 04:25:45;;;;;;;29.33;20.27;;;16.60;99.90;;;;;;5117783;27;20209;-74
2022/10/12 04:28:10;;;;;;;31.80;20.50;;;16.60;99.90;;;;;;5117370;27;20175;-74
2022/10/12 04:30:36;;;;;;;30.53;21.00;;;16.60;99.90;;;;;;5135639;27;20475;-73
2022/10/12 04:33:01;;;;;;;29.63;20.63;;;16.60;99.90;;;;;;5118237;27;20190;-74
2022/10/12 04:35:27;;;;;;;26.73;19.67;;;16.60;99.90;;;;;;5136760;27;20187;-73
2022/10/12 04:37:53;;;;;;;28.43;19.93;;;16.60;99.90;;;;;;5117345;27;20171;-74
2022/10/12 04:40:18;;;;;;;32.13;22.30;;;16.60;99.90;;;;;;5132544;27;20207;-74
2022/10/12 04:42:44;;;;;;;25.43;19.90;;;16.60;99.90;;;;;;5136745;27;20258;-73
2022/10/12 04:45:09;;;;;;;30.93;19.37;;;16.60;99.90;;;;;;5118254;27;20632;-73
2022/10/12 04:47:35;;;;;;;30.77;20.60;;;16.60;99.90;;;;;;5117536;27;20651;-73
2022/10/12 04:50:01;;;;;;;25.60;19.57;;;16.50;99.90;;;;;;5118063;27;20614;-74
2022/10/12 04:52:26;;;;;;;26.87;20.40;;;16.50;99.90;;;;;;5133705;27;20179;-73
2022/10/12 04:54:52;;;;;;;29.00;20.13;;;16.50;99.90;;;;;;5136201;27;20277;-74
2022/10/12 04:57:17;;;;;;;26.00;19.37;;;16.50;99.90;;;;;;5136462;27;20259;-74
2022/10/12 04:59:43;;;;;;;26.90;19.23;;;16.50;99.90;;;;;;5117560;27;20209;-73
2022/10/12 05:02:08;;;;;;;26.80;18.77;;;16.50;99.90;;;;;;5117626;27;20186;-73
2022/10/12 05:04:34;;;;;;;25.33;18.33;;;16.50;99.90;;;;;;5133959;27;20198;-74
2022/10/12 05:06:59;;;;;;;23.73;18.80;;;16.50;99.90;;;;;;5117287;27;20182;-73
2022/10/12 05:09:25;;;;;;;27.57;18.77;;;16.50;99.90;;;;;;5135909;27;20234;-73
2022/10/12 05:11:50;;;;;;;28.77;19.60;;;16.50;99.90;;;;;;5136108;27;20240;-73
2022/10/12 05:14:16;;;;;;;25.73;18.80;;;16.40;99.90;;;;;;5117331;27;20187;-74
2022/10/12 05:16:42;;;;;;;25.27;18.90;;;16.40;99.90;;;;;;5117322;27;20178;-74
2022/10/12 05:19:07;;;;;;;34.03;20.57;;;16.40;99.90;;;;;;5117194;27;20726;-73
2022/10/12 05:21:33;;;;;;;29.40;18.67;;;16.40;99.90;;;;;;5115886;27;20573;-73
2022/10/12 05:24:00;;;;;;;28.77;19.90;;;16.40;99.90;;;;;;5115775;27;20269;-75
2022/10/12 05:26:25;;;;;;;30.10;19.63;;;16.40;99.90;;;;;;5133684;27;20552;-74
2022/10/12 05:28:51;;;;;;;26.93;20.30;;;16.40;99.90;;;;;;5134410;27;20422;-74
2022/10/12 05:31:17;;;;;;;28.90;20.77;;;16.40;99.90;;;;;;5127288;27;20750;-73
2022/10/12 05:33:42;;;;;;;26.43;19.67;;;16.40;99.90;;;;;;5112788;27;20208;-75
2022/10/12 05:36:08;;;;;;;31.00;21.23;;;16.40;99.90;;;;;;5134654;27;20191;-74
2022/10/12 05:38:34;;;;;;;26.60;19.50;;;16.40;99.90;;;;;;5133117;27;20183;-74
2022/10/12 05:40:59;;;;;;;27.83;17.67;;;16.40;99.90;;;;;;5113601;27;20985;-74
2022/10/12 05:43:25;;;;;;;29.53;19.50;;;16.40;99.90;;;;;;5104310;27;20186;-74
2022/10/12 05:45:50;;;;;;;26.67;19.30;;;16.40;99.90;;;;;;5113547;27;20343;-74
2022/10/12 05:48:16;;;;;;;24.63;17.67;;;16.40;99.90;;;;;;5117112;27;20289;-74
2022/10/12 05:50:42;;;;;;;27.67;19.13;;;16.40;99.90;;;;;;5115359;27;20215;-74
2022/10/12 05:53:07;;;;;;;26.17;18.57;;;16.40;99.90;;;;;;5130592;27;20262;-73
2022/10/12 05:55:33;;;;;;;25.50;18.27;;;16.40;99.90;;;;;;5133483;27;20215;-73
2022/10/12 05:57:59;;;;;;;24.93;17.83;;;16.40;99.90;;;;;;5134746;27;20266;-74
2022/10/12 06:00:25;;;;;;;24.23;17.73;;;16.50;99.90;;;;;;5133489;27;20523;-74
2022/10/12 06:02:50;;;;;;;22.87;17.30;;;16.50;99.90;;;;;;5114811;27;20177;-73
2022/10/12 06:05:16;;;;;;;29.87;18.60;;;16.50;99.90;;;;;;5114523;27;20728;-73
2022/10/12 06:07:42;;;;;;;26.40;18.90;;;16.50;99.90;;;;;;5131337;27;20635;-74
2022/10/12 06:10:08;;;;;;;28.70;17.23;;;16.50;99.90;;;;;;5133042;27;20462;-74
2022/10/12 06:12:33;;;;;;;21.77;16.77;;;16.60;99.90;;;;;;5119365;27;20176;-74
2022/10/12 06:14:59;;;;;;;23.47;17.10;;;16.60;99.90;;;;;;5122774;27;20517;-74
2022/10/12 06:17:24;;;;;;;22.40;15.70;;;16.60;99.90;;;;;;5110746;27;20213;-74
2022/10/12 06:19:50;;;;;;;24.33;16.93;;;16.70;99.90;;;;;;5133987;27;20205;-74
2022/10/12 06:22:16;;;;;;;20.93;16.03;;;16.70;99.90;;;;;;5116136;27;20186;-74
2022/10/12 06:24:41;;;;;;;23.40;16.50;;;16.70;99.90;;;;;;5134549;27;20227;-74
2022/10/12 06:27:07;;;;;;;25.10;16.23;;;16.70;99.90;;;;;;5115089;27;20183;-74
2022/10/12 06:29:34;;;;;;;21.00;15.23;;;16.80;99.90;;;;;;5124309;27;20206;-74
2022/10/12 06:32:00;;;;;;;19.37;15.20;;;16.80;99.90;;;;;;5132837;27;20174;-74
2022/10/12 06:34:25;;;;;;;22.40;15.00;;;16.80;99.90;;;;;;5114755;27;20459;-74
2022/10/12 06:36:51;;;;;;;18.50;14.37;;;16.90;99.90;;;;;;5134395;27;20163;-73
2022/10/12 06:39:17;;;;;;;18.23;14.20;;;16.90;99.90;;;;;;5132765;27;20659;-74
2022/10/12 06:41:43;;;;;;;16.87;13.20;;;16.90;99.90;;;;;;5131991;28;20455;-73
2022/10/12 06:44:09;;;;;;;18.90;13.87;;;16.90;99.90;;;;;;5103567;27;20183;-75
2022/10/12 06:46:34;;;;;;;18.67;13.57;;;16.90;99.90;;;;;;5130491;28;20187;-74
2022/10/12 06:49:00;;;;;;;18.67;13.40;;;17.00;99.90;;;;;;5132315;28;20175;-74
2022/10/12 06:51:25;;;;;;;15.00;12.83;;;17.00;99.90;;;;;;5114958;28;20201;-74
2022/10/12 06:53:54;;;;;;;14.37;11.90;;;17.00;99.90;;;;;;5132086;28;20181;-75
2022/10/12 06:56:20;;;;;;;17.70;13.03;;;17.00;99.90;;;;;;5113800;28;20278;-74
2022/10/12 06:58:45;;;;;;;16.07;11.63;;;17.00;99.90;;;;;;5129379;28;20450;-73
2022/10/12 07:01:11;;;;;;;14.40;12.07;;;17.00;99.90;;;;;;5111538;28;20667;-74
2022/10/12 07:03:37;;;;;;;16.00;13.13;;;17.00;99.90;;;;;;5130657;28;20182;-74
2022/10/12 07:06:07;;;;;;;13.70;11.50;;;17.00;99.90;;;;;;5129472;27;20187;-74
2022/10/12 07:08:33;;;;;;;15.20;11.50;;;17.10;99.90;;;;;;5119035;28;20175;-74
2022/10/12 07:11:00;;;;;;;14.40;11.40;;;17.10;99.90;;;;;;5129170;28;20523;-74
2022/10/12 07:13:26;;;;;;;14.00;11.10;;;17.00;99.90;;;;;;5114538;28;20423;-74
2022/10/12 07:15:52;;;;;;;16.97;12.93;;;17.00;99.90;;;;;;5133858;28;20469;-75
2022/10/12 07:18:17;;;;;;;14.60;11.63;;;17.00;99.90;;;;;;5132085;28;20257;-74
2022/10/12 07:20:43;;;;;;;16.20;11.10;;;17.10;99.90;;;;;;5132460;28;20694;-73
2022/10/12 07:23:09;;;;;;;14.73;12.33;;;17.10;99.90;;;;;;5113092;28;20707;-75
2022/10/12 07:25:34;;;;;;;16.50;11.50;;;17.10;99.90;;;;;;5129011;28;20462;-74
2022/10/12 07:28:01;;;;;;;14.53;11.30;;;17.10;99.90;;;;;;5128888;28;20577;-74
2022/10/12 07:30:27;;;;;;;17.23;11.50;;;17.10;99.90;;;;;;5127624;28;20600;-74
2022/10/12 07:32:53;;;;;;;14.83;10.80;;;17.10;99.90;;;;;;5128904;28;20415;-74
2022/10/12 07:35:19;;;;;;;15.37;11.23;;;17.20;99.90;;;;;;5128270;28;20656;-74
2022/10/12 07:37:47;;;;;;;18.13;12.70;;;17.10;99.90;;;;;;5108649;28;20438;-74
2022/10/12 07:40:13;;;;;;;12.60;10.77;;;17.20;99.90;;;;;;5109152;28;20187;-74
2022/10/12 07:42:38;;;;;;;14.50;11.10;;;17.30;99.90;;;;;;5129918;28;20552;-74
2022/10/12 07:45:04;;;;;;;13.27;11.27;;;17.30;99.90;;;;;;5128465;27;20200;-73
2022/10/12 07:47:30;;;;;;;15.20;11.83;;;17.30;99.90;;;;;;5129611;28;20191;-74
2022/10/12 07:49:56;;;;;;;16.63;11.20;;;17.30;99.90;;;;;;5128958;27;20471;-75
2022/10/12 07:52:21;;;;;;;18.60;11.57;;;17.30;99.90;;;;;;5131363;28;20175;-74
2022/10/12 07:54:47;;;;;;;16.47;10.77;;;17.30;99.90;;;;;;5130572;27;20261;-74
2022/10/12 07:57:12;;;;;;;14.20;11.90;;;17.40;99.90;;;;;;5110954;27;20175;-74
2022/10/12 07:59:38;;;;;;;16.30;10.53;;;17.40;99.90;;;;;;5113330;27;20244;-74
2022/10/12 08:02:03;;;;;;;16.00;11.27;;;17.40;99.90;;;;;;5128291;27;20187;-74
2022/10/12 08:04:29;;;;;;;12.50;10.50;;;17.40;99.90;;;;;;5112027;27;20199;-74
2022/10/12 08:06:56;;;;;;;16.77;10.63;;;17.40;99.90;;;;;;5104009;28;20187;-74
2022/10/12 08:09:22;;;;;;;14.37;11.43;;;17.40;99.90;;;;;;5121870;27;20203;-74
2022/10/12 08:11:48;;;;;;;13.93;11.93;;;17.50;99.90;;;;;;5125045;27;20758;-74
2022/10/12 08:14:15;;;;;;;16.23;12.20;;;17.50;99.90;;;;;;5105114;28;20188;-75
2022/10/12 08:16:42;;;;;;;13.60;11.43;;;17.50;99.90;;;;;;5128287;27;20212;-74
2022/10/12 08:19:07;;;;;;;13.53;10.97;;;17.60;99.90;;;;;;5116828;27;20440;-74
2022/10/12 08:21:33;;;;;;;11.43;10.23;;;17.60;99.90;;;;;;5115577;27;20451;-73
2022/10/12 08:23:58;;;;;;;14.40;10.73;;;17.70;99.90;;;;;;5133871;27;20231;-74
2022/10/12 08:26:24;;;;;;;14.70;11.50;;;17.70;99.90;;;;;;5130720;27;20207;-72
2022/10/12 08:28:49;;;;;;;15.57;10.87;;;17.80;99.90;;;;;;5131561;27;20636;-73
2022/10/12 08:31:16;;;;;;;14.70;11.43;;;17.80;99.90;;;;;;5129674;27;20430;-73
2022/10/12 08:33:42;;;;;;;12.13;10.40;;;17.80;99.90;;;;;;5112396;27;20187;-73
2022/10/12 08:36:10;;;;;;;16.13;11.30;;;17.80;99.90;;;;;;5112783;27;20440;-72
2022/10/12 08:38:37;;;;;;;18.20;12.63;;;17.90;99.90;;;;;;5113872;27;20950;-73
2022/10/12 08:41:19;;;;;;;12.53;10.50;;;17.90;99.90;;;;;;5132784;27;20791;-72
2022/10/12 08:43:48;;;;;;;13.00;11.37;;;18.00;99.90;;;;;;5114131;27;20442;-73
2022/10/12 08:46:19;;;;;;;15.97;11.80;;;18.00;99.90;;;;;;5134744;27;20444;-72
2022/10/12 08:48:50;;;;;;;14.90;10.00;;;18.00;99.90;;;;;;5115595;27;20794;-73
2022/10/12 08:51:21;;;;;;;19.20;11.90;;;18.00;99.90;;;;;;5117558;27;20503;-73
2022/10/12 08:54:00;;;;;;;11.73;10.03;;;18.00;99.90;;;;;;5135261;27;20466;-73
2022/10/12 08:56:26;;;;;;;16.80;11.03;;;18.10;99.90;;;;;;5134922;27;20452;-73
2022/10/12 08:58:52;;;;;;;14.97;10.60;;;18.10;99.90;;;;;;5116313;27;20420;-73
2022/10/12 09:01:37;;;;;;;13.40;10.70;;;18.10;99.90;;;;;;5133521;27;20715;-73
2022/10/12 09:04:03;;;;;;;13.60;10.40;;;18.20;99.90;;;;;;5133162;27;20419;-72
2022/10/12 09:06:46;;;;;;;17.50;10.93;;;18.20;99.90;;;;;;5109268;27;20467;-72
2022/10/12 09:09:39;;;;;;;14.93;11.13;;;18.20;99.90;;;;;;5128058;27;20271;-72
2022/10/12 09:12:36;;;;;;;13.97;10.90;;;18.30;99.90;;;;;;5112704;27;20468;-73
2022/10/12 09:15:09;;;;;;;15.87;11.90;;;18.30;99.90;;;;;;5106733;27;20476;-72
2022/10/12 09:18:01;;;;;;;14.90;10.83;;;18.30;99.90;;;;;;5132444;27;20488;-72
2022/10/12 09:20:35;;;;;;;13.97;10.90;;;18.30;99.90;;;;;;5126543;27;20460;-72
2022/10/12 09:23:16;;;;;;;11.97;10.37;;;18.40;99.90;;;;;;5130325;27;20480;-73
2022/10/12 09:25:42;;;;;;;11.13;9.80;;;18.40;99.90;;;;;;5111757;27;20434;-72
2022/10/12 09:28:37;;;;;;;15.10;10.80;;;18.40;99.90;;;;;;5111823;27;20470;-73
2022/10/12 09:31:09;;;;;;;11.40;10.17;;;18.50;99.90;;;;;;5132045;27;20492;-73
2022/10/12 09:33:49;;;;;;;13.40;9.93;;;18.50;99.90;;;;;;5097832;27;20818;-73
2022/10/12 09:36:19;;;;;;;15.00;11.00;;;18.50;99.90;;;;;;5123167;27;20448;-72
2022/10/12 09:38:46;;;;;;;16.50;10.47;;;18.60;99.90;;;;;;5133034;27;20413;-73
2022/10/12 09:41:25;;;;;;;13.50;10.57;;;18.70;99.90;;;;;;5113077;27;20438;-73
2022/10/12 09:43:55;;;;;;;14.17;10.83;;;18.70;99.90;;;;;;5112939;27;20422;-72
2022/10/12 09:46:41;;;;;;;14.10;9.63;;;18.80;99.90;;;;;;5133057;27;20796;-72
2022/10/12 09:49:07;;;;;;;13.27;11.13;;;18.80;99.90;;;;;;5120005;27;20425;-73
2022/10/12 09:51:33;;;;;;;15.10;10.43;;;18.80;99.90;;;;;;5129139;27;20416;-73
2022/10/12 09:54:04;;;;;;;12.73;10.33;;;18.70;99.90;;;;;;5129156;27;20593;-73
2022/10/12 09:56:38;;;;;;;13.80;10.10;;;18.70;99.90;;;;;;5130210;27;20876;-73
2022/10/12 09:59:26;;;;;;;13.87;11.40;;;18.80;99.90;;;;;;5104711;27;20446;-72
2022/10/12 10:02:10;;;;;;;11.77;10.00;;;18.80;99.90;;;;;;5115676;27;20492;-73
2022/10/12 10:04:39;;;;;;;16.30;10.17;;;18.90;99.90;;;;;;5103448;27;21194;-73
2022/10/12 10:07:32;;;;;;;14.30;11.47;;;19.00;99.90;;;;;;5118113;27;20943;-73
2022/10/12 10:10:09;;;;;;;14.63;12.00;;;19.10;99.90;;;;;;5100653;28;20485;-73
2022/10/12 10:12:57;;;;;;;17.63;12.30;;;19.20;99.90;;;;;;5103664;27;21032;-72
2022/10/12 10:15:27;;;;;;;14.10;11.67;;;19.20;99.90;;;;;;5128168;27;20457;-73
2022/10/12 10:17:58;;;;;;;11.63;9.80;;;19.30;99.90;;;;;;5132734;27;20454;-73
2022/10/12 10:20:43;;;;;;;13.00;11.43;;;19.30;99.90;;;;;;5133166;27;20438;-73
2022/10/12 10:23:26;;;;;;;15.60;11.00;;;19.30;99.90;;;;;;5114944;27;20482;-73
2022/10/12 10:26:02;;;;;;;13.13;9.90;;;19.40;99.90;;;;;;5132652;27;20507;-73
2022/10/12 10:28:30;;;;;;;15.93;10.90;;;19.40;99.90;;;;;;5133310;27;20921;-73
2022/10/12 10:30:59;;;;;;;15.37;11.30;;;19.40;99.90;;;;;;5106524;28;20835;-73
2022/10/12 10:33:25;;;;;;;15.17;10.40;;;19.40;99.90;;;;;;5100282;28;20788;-73
2022/10/12 10:35:59;;;;;;;13.40;10.63;;;19.40;99.90;;;;;;5126885;27;20464;-73
2022/10/12 10:38:26;;;;;;;13.57;10.80;;;19.40;99.90;;;;;;5132090;27;20429;-73
2022/10/12 10:40:55;;;;;;;18.37;10.43;;;19.40;99.90;;;;;;5125772;27;20473;-73
2022/10/12 10:43:29;;;;;;;11.70;10.10;;;19.50;99.90;;;;;;5111268;28;20848;-73
2022/10/12 10:45:59;;;;;;;15.00;11.93;;;19.50;99.90;;;;;;5105745;28;20993;-73
2022/10/12 10:48:36;;;;;;;14.77;10.07;;;19.50;99.90;;;;;;5119987;28;20434;-73
2022/10/12 10:51:04;;;;;;;16.10;11.23;;;19.50;99.90;;;;;;5118522;28;20837;-73
2022/10/12 10:53:41;;;;;;;12.00;10.37;;;19.50;99.90;;;;;;5118153;28;20813;-73
2022/10/12 10:56:20;;;;;;;17.50;15.60;;;19.50;99.90;;;;;;5117474;28;20548;-73
2022/10/12 10:58:54;;;;;;;13.90;10.87;;;19.60;99.90;;;;;;5115189;28;20427;-73
2022/10/12 11:01:23;;;;;;;14.03;10.73;;;19.60;99.90;;;;;;5100441;28;21068;-72
2022/10/12 11:04:09;;;;;;;15.23;10.90;;;19.60;99.90;;;;;;5095310;28;20535;-72
2022/10/12 11:06:42;;;;;;;12.07;10.20;;;19.60;99.90;;;;;;5101535;28;20996;-73
2022/10/12 11:09:24;;;;;;;12.07;9.70;;;19.60;99.90;;;;;;5120930;28;20430;-73
2022/10/12 11:12:04;;;;;;;13.37;10.63;;;19.60;99.90;;;;;;5118742;28;20423;-72
2022/10/12 11:14:39;;;;;;;14.70;9.80;;;19.60;99.90;;;;;;5104185;28;20426;-73
2022/10/12 11:17:13;;;;;;;13.87;10.07;;;19.60;99.90;;;;;;5101362;28;20817;-73
2022/10/12 11:20:25;;;;;;;14.27;10.50;;;19.60;99.90;;;;;;5103643;28;20484;-73
2022/10/12 11:23:17;;;;;;;14.30;9.70;;;19.60;99.90;;;;;;5043336;28;20521;-73
2022/10/12 11:26:00;;;;;;;10.73;9.40;;;19.60;99.90;;;;;;5047152;28;20963;-73
2022/10/12 11:28:30;;;;;;;13.07;10.77;;;19.60;99.90;;;;;;5077250;28;20539;-73
2022/10/12 11:30:56;;;;;;;16.07;9.97;;;19.60;99.90;;;;;;5105978;28;20664;-73
2022/10/12 11:33:37;;;;;;;15.53;10.80;;;19.60;99.90;;;;;;5088980;28;21027;-73
2022/10/12 11:36:08;;;;;;;15.90;9.40;;;19.60;99.90;;;;;;5088452;28;20447;-74
2022/10/12 11:38:51;;;;;;;17.13;10.43;;;19.60;99.90;;;;;;5083953;28;20775;-73
2022/10/12 11:41:28;;;;;;;16.30;9.37;;;19.60;99.90;;;;;;5086216;28;20456;-74
2022/10/12 11:44:32;;;;;;;14.13;9.90;;;19.60;99.90;;;;;;5082725;28;20847;-73
2022/10/12 11:47:13;;;;;;;14.53;10.33;;;19.60;99.90;;;;;;5080197;28;20995;-73
2022/10/12 11:50:13;;;;;;;12.40;9.60;;;19.60;99.90;;;;;;5079078;28;20459;-74
2022/10/12 11:52:44;;;;;;;10.80;9.67;;;19.60;99.90;;;;;;5107849;27;20811;-74
2022/10/12 11:55:42;;;;;;;12.03;10.83;;;19.60;99.90;;;;;;5078287;28;20451;-74
2022/10/12 11:58:22;;;;;;;13.37;10.20;;;19.60;99.90;;;;;;5081483;28;20437;-74
2022/10/12 12:01:15;;;;;;;12.80;9.87;;;19.60;99.90;;;;;;5083434;28;20539;-74
2022/10/12 12:03:43;;;;;;;12.17;9.50;;;19.50;99.90;;;;;;5087844;28;20915;-73
2022/10/12 12:06:27;;;;;;;10.90;9.20;;;19.50;99.90;;;;;;5080102;28;20457;-73
2022/10/12 12:08:55;;;;;;;11.83;9.20;;;19.50;99.90;;;;;;5079811;28;20436;-73
2022/10/12 12:11:27;;;;;;;11.23;9.23;;;19.50;99.90;;;;;;5085007;28;20463;-73
2022/10/12 12:14:24;;;;;;;12.10;9.60;;;19.50;99.90;;;;;;5080125;28;20904;-73
2022/10/12 12:17:10;;;;;;;13.80;9.80;;;19.50;99.90;;;;;;5086900;28;20454;-74
2022/10/12 12:19:41;;;;;;;13.40;9.43;;;19.50;99.90;;;;;;5068441;28;20448;-73
2022/10/12 12:22:29;;;;;;;9.53;8.53;;;19.60;99.90;;;;;;5082963;28;20495;-74
2022/10/12 12:24:57;;;;;;;12.87;9.60;;;19.60;99.90;;;;;;5086061;28;20962;-73
2022/10/12 12:27:45;;;;;;;13.00;10.50;;;19.50;99.90;;;;;;5083593;28;20447;-74
2022/10/12 12:30:17;;;;;;;16.13;10.43;;;19.60;99.90;;;;;;5086795;28;20482;-74
2022/10/12 12:32:46;;;;;;;13.73;10.77;;;19.60;99.90;;;;;;5089927;28;20507;-73
2022/10/12 12:35:36;;;;;;;12.87;10.07;;;19.60;99.90;;;;;;5089570;28;20574;-74
2022/10/12 12:38:11;;;;;;;10.83;9.60;;;19.60;99.90;;;;;;5083455;28;20527;-74
2022/10/12 12:40:39;;;;;;;18.70;9.23;;;19.60;99.90;;;;;;5086473;28;20444;-74
2022/10/12 12:43:37;;;;;;;11.07;9.97;;;19.60;99.90;;;;;;5082020;28;20425;-74
2022/10/12 12:46:10;;;;;;;14.90;9.03;;;19.60;99.90;;;;;;5087632;28;20480;-74
2022/10/12 12:48:39;;;;;;;12.23;10.93;;;19.60;99.90;;;;;;5074570;28;20534;-74